地図

経路データ

SID SEASON NUMBER BASIN SUBBASIN NAME ISO_TIME NATURE LAT LON WMO_WIND WMO_PRES WMO_AGENCY TRACK_TYPE DIST2LAND LANDFALL IFLAG USA_AGENCY USA_ATCF_ID USA_LAT USA_LON USA_RECORD USA_STATUS USA_WIND USA_PRES USA_SSHS USA_R34_NE USA_R34_SE USA_R34_SW USA_R34_NW USA_R50_NE USA_R50_SE USA_R50_SW USA_R50_NW USA_R64_NE USA_R64_SE USA_R64_SW USA_R64_NW USA_POCI USA_ROCI USA_RMW USA_EYE TOKYO_LAT TOKYO_LON TOKYO_GRADE TOKYO_WIND TOKYO_PRES TOKYO_R50_DIR TOKYO_R50_LONG TOKYO_R50_SHORT TOKYO_R30_DIR TOKYO_R30_LONG TOKYO_R30_SHORT TOKYO_LAND CMA_LAT CMA_LON CMA_CAT CMA_WIND CMA_PRES HKO_LAT HKO_LON HKO_CAT HKO_WIND HKO_PRES NEWDELHI_LAT NEWDELHI_LON NEWDELHI_GRADE NEWDELHI_WIND NEWDELHI_PRES NEWDELHI_CI NEWDELHI_DP NEWDELHI_POCI REUNION_LAT REUNION_LON REUNION_TYPE REUNION_WIND REUNION_PRES REUNION_TNUM REUNION_CI REUNION_RMW REUNION_R34_NE REUNION_R34_SE REUNION_R34_SW REUNION_R34_NW REUNION_R50_NE REUNION_R50_SE REUNION_R50_SW REUNION_R50_NW REUNION_R64_NE REUNION_R64_SE REUNION_R64_SW REUNION_R64_NW BOM_LAT BOM_LON BOM_TYPE BOM_WIND BOM_PRES BOM_TNUM BOM_CI BOM_RMW BOM_R34_NE BOM_R34_SE BOM_R34_SW BOM_R34_NW BOM_R50_NE BOM_R50_SE BOM_R50_SW BOM_R50_NW BOM_R64_NE BOM_R64_SE BOM_R64_SW BOM_R64_NW BOM_ROCI BOM_POCI BOM_EYE BOM_POS_METHOD BOM_PRES_METHOD NADI_LAT NADI_LON NADI_CAT NADI_WIND NADI_PRES WELLINGTON_LAT WELLINGTON_LON WELLINGTON_WIND WELLINGTON_PRES DS824_LAT DS824_LON DS824_STAGE DS824_WIND DS824_PRES TD9636_LAT TD9636_LON TD9636_STAGE TD9636_WIND TD9636_PRES TD9635_LAT TD9635_LON TD9635_WIND TD9635_PRES TD9635_ROCI NEUMANN_LAT NEUMANN_LON NEUMANN_CLASS NEUMANN_WIND NEUMANN_PRES MLC_LAT MLC_LON MLC_CLASS MLC_WIND MLC_PRES USA_GUST BOM_GUST BOM_GUST_PER REUNION_GUST REUNION_GUST_PER USA_SEAHGT USA_SEARAD_NE USA_SEARAD_SE USA_SEARAD_SW USA_SEARAD_NW STORM_SPEED STORM_DIR
1973193N20089 1973 65 NI BB NOT_NAMED 1973-07-12 00:00:00 TS 19.9000 88.5000 main 180 141 O________OO___ jtwc_io IO051973 19.9000 88.5000 -1 19.9000 88.5000 TC 25 19.9000 88.5000 1 8 311
1973193N20089 1973 65 NI BB NOT_NAMED 1973-07-12 03:00:00 TS 20.1583 88.1864 main 136 99 P________PP___ IO051973 20.1651 88.1977 -1 20.1651 88.1977 TC 25 20.1446 88.1638 1 8 310
1973193N20089 1973 65 NI BB NOT_NAMED 1973-07-12 06:00:00 TS 20.3903 87.8838 main 99 63 O________OP___ jtwc_io IO051973 20.4000 87.9000 -1 20.4000 87.9000 TC 25 20.3710 87.8515 1 7 308
1973193N20089 1973 65 NI BB NOT_NAMED 1973-07-12 09:00:00 TS 20.5740 87.6094 main 63 41 P________PP___ IO051973 20.5800 87.6200 -1 20.5800 87.6200 TC 25 20.5619 87.5884 1 6 304
1973193N20089 1973 65 NI BB NOT_NAMED 1973-07-12 12:00:00 TS 20.7000 87.4000 main 41 31 O________OO___ jtwc_io IO051973 20.7000 87.4000 -1 20.7000 87.4000 TC 25 20.7000 87.4000 1 4 303
1973193N20089 1973 65 NI BB NOT_NAMED 1973-07-12 15:00:00 TS 20.7687 87.2842 main 31 20 P________PP___ IO051973 20.7649 87.2774 -1 20.7649 87.2774 TC 25 20.7762 87.2977 1 2 301
1973193N20089 1973 65 NI BB NOT_NAMED 1973-07-12 18:00:00 TS 20.8047 87.2121 main 20 10 O________OP___ jtwc_io IO051973 20.8000 87.2000 -1 20.8000 87.2000 TC 25 20.8141 87.2364 1 2 297
1973193N20089 1973 65 NI BB NOT_NAMED 1973-07-12 21:00:00 TS 20.8382 87.1389 main 10 10 P________PP___ IO051973 20.8349 87.1299 -1 20.8349 87.1299 TC 25 20.8449 87.1570 1 2 296
1973193N20089 1973 65 NI BB NOT_NAMED 1973-07-13 00:00:00 TS 20.9000 87.0000 main 10 0 O________OO___ jtwc_io IO051973 20.9000 87.0000 -1 20.9000 87.0000 TC 25 20.9000 87.0000 1 4 298
1973193N20089 1973 65 NI BB NOT_NAMED 1973-07-13 03:00:00 TS 21.0288 86.7502 main 0 0 P________PP___ IO051973 21.0349 86.7600 -1 21.0349 86.7600 TC 25 21.0167 86.7307 1 6 297
1973193N20089 1973 65 NI BB NOT_NAMED 1973-07-13 06:00:00 TS 21.1872 86.3907 main 0 0 O________OP___ jtwc_io IO051973 21.2000 86.4000 -1 21.2000 86.4000 TC 25 21.1616 86.3720 1 8 293
1973193N20089 1973 65 NI BB NOT_NAMED 1973-07-13 09:00:00 TS 21.3417 85.9490 main 0 0 P________PP___ IO051973 21.3498 85.9599 -1 21.3498 85.9599 TC 25 21.3257 85.9274 1 10 289
1973193N20089 1973 65 NI BB NOT_NAMED 1973-07-13 12:00:00 TS 21.5000 85.4000 main 0 0 O________OO___ jtwc_io IO051973 21.5000 85.4000 -1 21.5000 85.4000 TC 25 21.5000 85.4000 1 12 285
1973193N20089 1973 65 NI BB NOT_NAMED 1973-07-13 15:00:00 TS 21.6461 84.7387 main 0 0 P________PP___ IO051973 21.6426 84.7224 -1 21.6426 84.7224 TC 25 21.6529 84.7715 1 13 283
1973193N20089 1973 65 NI BB NOT_NAMED 1973-07-13 18:00:00 TS 21.8048 84.0241 main 0 0 O________OP___ jtwc_io IO051973 21.8000 84.0000 -1 21.8000 84.0000 TC 25 21.8145 84.0723 1 13 285
1973193N20089 1973 65 NI BB NOT_NAMED 1973-07-13 21:00:00 TS 21.9878 83.3339 main 0 0 P________PP___ IO051973 21.9849 83.3199 -1 21.9849 83.3199 TC 25 21.9935 83.3619 1 13 288
1973193N20089 1973 65 NI BB NOT_NAMED 1973-07-14 00:00:00 TS 22.2000 82.7000 main 0 0 O________OO___ jtwc_io IO051973 22.2000 82.7000 -1 22.2000 82.7000 TC 25 22.2000 82.7000 1 12 292
1973193N20089 1973 65 NI BB NOT_NAMED 1973-07-14 03:00:00 TS 22.4369 82.1571 main 0 0 P________PP___ IO051973 22.4347 82.1698 -1 22.4347 82.1698 TC 25 22.4413 82.1316 1 11 298
1973193N20089 1973 65 NI BB NOT_NAMED 1973-07-14 06:00:00 TS 22.7038 81.6813 main 0 0 O________OP___ jtwc_io IO051973 22.7000 81.7000 -1 22.7000 81.7000 TC 25 22.7115 81.6438 1 10 303
1973193N20089 1973 65 NI BB NOT_NAMED 1973-07-14 09:00:00 TS 22.9956 81.2350 main 0 0 P________PP___ IO051973 22.9928 81.2479 -1 22.9928 81.2479 TC 25 23.0011 81.2091 1 10 306
1973193N20089 1973 65 NI BB NOT_NAMED 1973-07-14 12:00:00 TS 23.3000 80.8000 main 0 O________OO___ jtwc_io IO051973 23.3000 80.8000 -1 23.3000 80.8000 TC 25 23.3000 80.8000 6 10 307

IBTrACS Databaseについて

本データベースは、米国NOAAが公開する1842年以降の世界の熱帯低気圧のベストトラックデータアーカイブInternational Best Track Archive for Climate Stewardship (IBTrACS)を、ウェブで閲覧しやすい形式に変換したものです。

最終更新日:2021-12-01